Union Mills, Iowa
Current Conditions -  °F | °C
As of 10:35 AM on Friday 24 Oct 2014 (Local Time) from KPEA Reporting Station
Haze Haze  
Wind Chill: 59°   Ceiling: 100
Heat Index: 59°   Visibility: 1mi
Dew Point: 59°   Wind: 12mph
Humidity: 100%   Direction: 170°S
Pressure: 30.01"   Gusts: NA
Location:  41.465°N, 92.7016°W
Report Text: KPEA 241535Z AUTO 17010KT 1SM BR OVC001 15/15 A3001 RMK AO2 T01500150
Loading
Personal Weather Stations






























Interactive Weather Map
Tropical Storm Tracking
New forecast layout! Learn more

10-Day Weather Forecast

Advertisements
Track Severe Weather on mobile